Main page
METAR-TAF:

METAR-TAF

Airports :

Valladolid Airport

Valladolid, Spain

latitude: 41-43N, longitude: 004-51W, elevation: 849 m

Current weather observation

The report was made 31 minutes ago, at 22:30 UTC
Wind 13 kt from the East
Temperature 3°C
Humidity 65%
Pressure 1022 hPa
Visibility 10 km or more
no clouds below 1500 m and no cumulonimbus

METAR: LEVD 222230Z AUTO 08013KT CAVOK 03/M03 Q1022

Time: 01:01 (23:01 UTC)

Forecast

The report was made 3 hours and 1 minutes ago, at 20:00 UTC
Forecast valid from 22 at 21 UTC to 23 at 21 UTC
Wind 18 kt from the East/Northeast
Visibility 10 km or more
no clouds below 1500 m and no cumulonimbus
Becoming
from 23 at 00 UTC to 23 at 02 UTC
Wind 4 kt from variable directions
Probability 40% :
Temporary
from 23 at 14 UTC to 23 at 21 UTC
Wind 15 kt from the North with gusts up to 25 kt

TAF: LEVD 222000Z 2221/2321 06018KT CAVOK TX17/2315Z TNM00/2306Z BECMG 2300/2302 VRB04KT PROB40 TEMPO 2314/2321 01015G25KT

Weather observations and forecasts of more than 4000 airports (METAR and TAF reports).

The available stations are represented by yellow and red dots on the map.

Hover mouse over dot to see the name of the station.

Then click to see weather observations and forecasts.

To change the map : click on the green buttons with a black cross to zoom in, on the green button with a dash to zoom out, or on the green arrows for adjacent maps.


METAR-TAF: